<?xml version="1.0" encoding="UTF-8" standalone="no" ?>
<gpx xmlns="http://www.topografix.com/GPX/1/1" xmlns:xsi="http://www.w3.org/2001/XMLSchema-instance" xsi:schemaLocation="http://www.topografix.com/GPX/1/1 http://www.topografix.com/GPX/1/1/gpx.xsd" version="1.1" creator="VisuGPX - https://www.visugpx.com">
  <metadata>
    <name>rando lapouyade 10.14 km</name>
    <desc><![CDATA[agréable rando route chemin et vigne]]></desc>
  </metadata>
  <trk>
    <name><![CDATA[rando lapouyade 10 km]]></name>
    <trkseg>
      <trkpt lat="45.08435" lon="-0.28596">
        <ele>92</ele>
        <time>2017-04-24T14:52:12Z</time>
      </trkpt>
      <trkpt lat="45.08447" lon="-0.28641">
        <ele>91</ele>
        <time>2017-04-24T14:54:12Z</time>
      </trkpt>
      <trkpt lat="45.08534" lon="-0.28665">
        <ele>89</ele>
        <time>2017-04-24T14:56:12Z</time>
      </trkpt>
      <trkpt lat="45.08567" lon="-0.28511">
        <ele>94</ele>
        <time>2017-04-24T14:58:12Z</time>
      </trkpt>
      <trkpt lat="45.08552" lon="-0.28311">
        <ele>90</ele>
        <time>2017-04-24T15:00:12Z</time>
      </trkpt>
      <trkpt lat="45.08719" lon="-0.28315">
        <ele>95</ele>
        <time>2017-04-24T15:02:12Z</time>
      </trkpt>
      <trkpt lat="45.08864" lon="-0.28242">
        <ele>95</ele>
        <time>2017-04-24T15:04:12Z</time>
      </trkpt>
      <trkpt lat="45.09018" lon="-0.28212">
        <ele>99</ele>
        <time>2017-04-24T15:06:12Z</time>
      </trkpt>
      <trkpt lat="45.09694" lon="-0.27805">
        <ele>79</ele>
        <time>2017-04-24T15:10:12Z</time>
      </trkpt>
      <trkpt lat="45.10079" lon="-0.27684">
        <ele>73</ele>
        <time>2017-04-24T15:12:12Z</time>
      </trkpt>
      <trkpt lat="45.10475" lon="-0.27652">
        <ele>62</ele>
        <time>2017-04-24T15:16:12Z</time>
      </trkpt>
      <trkpt lat="45.10635" lon="-0.27596">
        <ele>54</ele>
        <time>2017-04-24T15:18:12Z</time>
      </trkpt>
      <trkpt lat="45.10656" lon="-0.27664">
        <ele>55</ele>
        <time>2017-04-24T15:20:12Z</time>
      </trkpt>
      <trkpt lat="45.10921" lon="-0.2753">
        <ele>62</ele>
        <time>2017-04-24T15:22:12Z</time>
      </trkpt>
      <trkpt lat="45.11003" lon="-0.27573">
        <ele>65</ele>
        <time>2017-04-24T15:24:12Z</time>
      </trkpt>
      <trkpt lat="45.11106" lon="-0.27551">
        <ele>65</ele>
        <time>2017-04-24T15:26:12Z</time>
      </trkpt>
      <trkpt lat="45.11309" lon="-0.27638">
        <ele>66</ele>
        <time>2017-04-24T15:28:12Z</time>
      </trkpt>
      <trkpt lat="45.1146" lon="-0.27729">
        <ele>70</ele>
        <time>2017-04-24T15:30:12Z</time>
      </trkpt>
      <trkpt lat="45.11638" lon="-0.27722">
        <ele>78</ele>
        <time>2017-04-24T15:32:12Z</time>
      </trkpt>
      <trkpt lat="45.1195" lon="-0.27592">
        <ele>84</ele>
        <time>2017-04-24T15:36:12Z</time>
      </trkpt>
      <trkpt lat="45.12072" lon="-0.27611">
        <ele>88</ele>
        <time>2017-04-24T15:38:12Z</time>
      </trkpt>
      <trkpt lat="45.12099" lon="-0.2784">
        <ele>87</ele>
        <time>2017-04-24T15:42:12Z</time>
      </trkpt>
      <trkpt lat="45.12054" lon="-0.27946">
        <ele>84</ele>
        <time>2017-04-24T15:44:12Z</time>
      </trkpt>
      <trkpt lat="45.12063" lon="-0.28122">
        <ele>85</ele>
        <time>2017-04-24T15:46:12Z</time>
      </trkpt>
      <trkpt lat="45.11933" lon="-0.28166">
        <ele>81</ele>
        <time>2017-04-24T15:48:12Z</time>
      </trkpt>
      <trkpt lat="45.11839" lon="-0.28161">
        <ele>79</ele>
        <time>2017-04-24T15:50:12Z</time>
      </trkpt>
      <trkpt lat="45.11513" lon="-0.28299">
        <ele>75</ele>
        <time>2017-04-24T15:54:12Z</time>
      </trkpt>
      <trkpt lat="45.11384" lon="-0.28264">
        <ele>74</ele>
        <time>2017-04-24T15:58:12Z</time>
      </trkpt>
      <trkpt lat="45.11248" lon="-0.28251">
        <ele>75</ele>
        <time>2017-04-24T16:00:12Z</time>
      </trkpt>
      <trkpt lat="45.11072" lon="-0.28263">
        <ele>70</ele>
        <time>2017-04-24T16:06:12Z</time>
      </trkpt>
      <trkpt lat="45.11062" lon="-0.28298">
        <ele>71</ele>
        <time>2017-04-24T16:12:12Z</time>
      </trkpt>
      <trkpt lat="45.11051" lon="-0.28279">
        <ele>70</ele>
        <time>2017-04-24T16:18:12Z</time>
      </trkpt>
      <trkpt lat="45.10921" lon="-0.28294">
        <ele>67</ele>
        <time>2017-04-24T16:22:12Z</time>
      </trkpt>
      <trkpt lat="45.1074" lon="-0.28287">
        <ele>58</ele>
        <time>2017-04-24T16:24:12Z</time>
      </trkpt>
      <trkpt lat="45.10658" lon="-0.28312">
        <ele>55</ele>
        <time>2017-04-24T16:26:12Z</time>
      </trkpt>
      <trkpt lat="45.1057" lon="-0.28372">
        <ele>53</ele>
        <time>2017-04-24T16:28:12Z</time>
      </trkpt>
      <trkpt lat="45.10519" lon="-0.28365">
        <ele>53</ele>
        <time>2017-04-24T16:30:12Z</time>
      </trkpt>
      <trkpt lat="45.1051" lon="-0.28101">
        <ele>52</ele>
        <time>2017-04-24T16:32:12Z</time>
      </trkpt>
      <trkpt lat="45.10581" lon="-0.27631">
        <ele>55</ele>
        <time>2017-04-24T16:34:12Z</time>
      </trkpt>
      <trkpt lat="45.10614" lon="-0.27614">
        <ele>54</ele>
        <time>2017-04-24T16:36:12Z</time>
      </trkpt>
      <trkpt lat="45.10485" lon="-0.27654">
        <ele>62</ele>
        <time>2017-04-24T16:38:12Z</time>
      </trkpt>
      <trkpt lat="45.10182" lon="-0.27685">
        <ele>71</ele>
        <time>2017-04-24T16:42:12Z</time>
      </trkpt>
      <trkpt lat="45.09749" lon="-0.27801">
        <ele>79</ele>
        <time>2017-04-24T16:48:12Z</time>
      </trkpt>
      <trkpt lat="45.09049" lon="-0.28187">
        <ele>98</ele>
        <time>2017-04-24T16:58:12Z</time>
      </trkpt>
      <trkpt lat="45.08685" lon="-0.28324">
        <ele>94</ele>
        <time>2017-04-24T17:04:12Z</time>
      </trkpt>
      <trkpt lat="45.08576" lon="-0.2832">
        <ele>91</ele>
        <time>2017-04-24T17:06:12Z</time>
      </trkpt>
      <trkpt lat="45.08561" lon="-0.28393">
        <ele>93</ele>
        <time>2017-04-24T17:08:12Z</time>
      </trkpt>
      <trkpt lat="45.08558" lon="-0.2856">
        <ele>93</ele>
        <time>2017-04-24T17:10:12Z</time>
      </trkpt>
      <trkpt lat="45.08528" lon="-0.28702">
        <ele>89</ele>
        <time>2017-04-24T17:12:12Z</time>
      </trkpt>
      <trkpt lat="45.08422" lon="-0.28672">
        <ele>91</ele>
        <time>2017-04-24T17:14:12Z</time>
      </trkpt>
    </trkseg>
  </trk>
</gpx>